sensor_id;sensor_type;location;lat;lon;timestamp;temperature;humidity
32502;DHT22;18952;52.516;13.460;2022-10-31T00:01:26;12.70;99.90
32502;DHT22;18952;52.516;13.460;2022-10-31T00:03:54;12.70;99.90
32502;DHT22;18952;52.516;13.460;2022-10-31T00:06:21;12.70;99.90
32502;DHT22;18952;52.516;13.460;2022-10-31T00:08:56;12.70;99.90
32502;DHT22;18952;52.516;13.460;2022-10-31T00:11:23;12.70;99.90
32502;DHT22;18952;52.516;13.460;2022-10-31T00:13:50;12.70;99.90
32502;DHT22;18952;52.516;13.460;2022-10-31T00:16:21;12.60;99.90
32502;DHT22;18952;52.516;13.460;2022-10-31T00:18:49;12.60;99.90
32502;DHT22;18952;52.516;13.460;2022-10-31T00:21:16;12.60;99.90
32502;DHT22;18952;52.516;13.460;2022-10-31T00:23:43;12.60;99.90
32502;DHT22;18952;52.516;13.460;2022-10-31T00:26:10;12.60;99.90
32502;DHT22;18952;52.516;13.460;2022-10-31T00:28:37;12.50;99.90
32502;DHT22;18952;52.516;13.460;2022-10-31T00:31:06;12.50;99.90
32502;DHT22;18952;52.516;13.460;2022-10-31T00:33:34;12.50;99.90
32502;DHT22;18952;52.516;13.460;2022-10-31T00:36:01;12.50;99.90
32502;DHT22;18952;52.516;13.460;2022-10-31T00:38:27;12.50;99.90
32502;DHT22;18952;52.516;13.460;2022-10-31T00:40:54;12.50;99.90
32502;DHT22;18952;52.516;13.460;2022-10-31T00:43:21;12.40;99.90
32502;DHT22;18952;52.516;13.460;2022-10-31T00:45:48;12.50;99.90
32502;DHT22;18952;52.516;13.460;2022-10-31T00:48:14;12.50;99.90
32502;DHT22;18952;52.516;13.460;2022-10-31T00:50:41;12.40;99.90
32502;DHT22;18952;52.516;13.460;2022-10-31T00:53:08;12.40;99.90
32502;DHT22;18952;52.516;13.460;2022-10-31T00:55:35;12.30;99.90
32502;DHT22;18952;52.516;13.460;2022-10-31T00:58:02;12.30;99.90
32502;DHT22;18952;52.516;13.460;2022-10-31T01:00:29;12.30;99.90
32502;DHT22;18952;52.516;13.460;2022-10-31T01:02:56;12.30;99.90
32502;DHT22;18952;52.516;13.460;2022-10-31T01:05:23;12.30;99.90
32502;DHT22;18952;52.516;13.460;2022-10-31T01:07:50;12.30;99.90
32502;DHT22;18952;52.516;13.460;2022-10-31T01:10:22;12.30;99.90
32502;DHT22;18952;52.516;13.460;2022-10-31T01:12:50;12.30;99.90
32502;DHT22;18952;52.516;13.460;2022-10-31T01:15:20;12.30;99.90
32502;DHT22;18952;52.516;13.460;2022-10-31T01:17:48;12.20;99.90
32502;DHT22;18952;52.516;13.460;2022-10-31T01:20:15;12.30;99.90
32502;DHT22;18952;52.516;13.460;2022-10-31T01:22:42;12.30;99.90
32502;DHT22;18952;52.516;13.460;2022-10-31T01:25:09;12.30;99.90
32502;DHT22;18952;52.516;13.460;2022-10-31T01:27:36;12.30;99.90
32502;DHT22;18952;52.516;13.460;2022-10-31T01:30:05;12.30;99.90
32502;DHT22;18952;52.516;13.460;2022-10-31T01:32:32;12.30;99.90
32502;DHT22;18952;52.516;13.460;2022-10-31T01:34:59;12.20;99.90
32502;DHT22;18952;52.516;13.460;2022-10-31T01:37:26;12.30;99.90
32502;DHT22;18952;52.516;13.460;2022-10-31T01:39:54;12.30;99.90
32502;DHT22;18952;52.516;13.460;2022-10-31T01:42:22;12.30;99.90
32502;DHT22;18952;52.516;13.460;2022-10-31T01:44:59;12.30;99.90
32502;DHT22;18952;52.516;13.460;2022-10-31T01:47:47;12.30;99.90
32502;DHT22;18952;52.516;13.460;2022-10-31T01:50:24;12.30;99.90
32502;DHT22;18952;52.516;13.460;2022-10-31T01:52:53;12.30;99.90
32502;DHT22;18952;52.516;13.460;2022-10-31T01:55:21;12.30;99.90
32502;DHT22;18952;52.516;13.460;2022-10-31T01:57:58;12.30;99.90
32502;DHT22;18952;52.516;13.460;2022-10-31T02:03:17;12.30;99.90
32502;DHT22;18952;52.516;13.460;2022-10-31T02:05:45;12.30;99.90
32502;DHT22;18952;52.516;13.460;2022-10-31T02:08:33;12.30;99.90
32502;DHT22;18952;52.516;13.460;2022-10-31T02:11:01;12.30;99.90
32502;DHT22;18952;52.516;13.460;2022-10-31T02:13:29;12.20;99.90
32502;DHT22;18952;52.516;13.460;2022-10-31T02:15:58;12.30;99.90
32502;DHT22;18952;52.516;13.460;2022-10-31T02:18:28;12.30;99.90
32502;DHT22;18952;52.516;13.460;2022-10-31T02:21:15;12.20;99.90
32502;DHT22;18952;52.516;13.460;2022-10-31T02:26:52;12.30;99.90
32502;DHT22;18952;52.516;13.460;2022-10-31T02:38:13;12.20;99.90
32502;DHT22;18952;52.516;13.460;2022-10-31T02:46:23;12.20;99.90
32502;DHT22;18952;52.516;13.460;2022-10-31T02:48:55;12.20;99.90
32502;DHT22;18952;52.516;13.460;2022-10-31T02:51:23;12.20;99.90
32502;DHT22;18952;52.516;13.460;2022-10-31T02:53:50;12.20;99.90
32502;DHT22;18952;52.516;13.460;2022-10-31T02:56:18;12.20;99.90
32502;DHT22;18952;52.516;13.460;2022-10-31T03:01:22;12.20;99.90
32502;DHT22;18952;52.516;13.460;2022-10-31T03:06:22;12.20;99.90
32502;DHT22;18952;52.516;13.460;2022-10-31T03:11:57;12.10;99.90
32502;DHT22;18952;52.516;13.460;2022-10-31T03:17:05;12.10;99.90
32502;DHT22;18952;52.516;13.460;2022-10-31T03:19:39;12.00;99.90
32502;DHT22;18952;52.516;13.460;2022-10-31T03:22:28;12.00;99.90
32502;DHT22;18952;52.516;13.460;2022-10-31T03:24:56;12.00;99.90
32502;DHT22;18952;52.516;13.460;2022-10-31T03:27:26;12.00;99.90
32502;DHT22;18952;52.516;13.460;2022-10-31T03:29:56;12.10;99.90
32502;DHT22;18952;52.516;13.460;2022-10-31T03:32:31;12.10;99.90
32502;DHT22;18952;52.516;13.460;2022-10-31T03:34:59;12.10;99.90
32502;DHT22;18952;52.516;13.460;2022-10-31T03:37:30;12.00;99.90
32502;DHT22;18952;52.516;13.460;2022-10-31T03:40:00;12.00;99.90
32502;DHT22;18952;52.516;13.460;2022-10-31T03:42:31;12.10;99.90
32502;DHT22;18952;52.516;13.460;2022-10-31T03:45:03;12.00;99.90
32502;DHT22;18952;52.516;13.460;2022-10-31T03:47:32;12.00;99.90
32502;DHT22;18952;52.516;13.460;2022-10-31T03:50:00;12.00;99.90
32502;DHT22;18952;52.516;13.460;2022-10-31T03:52:33;12.00;99.90
32502;DHT22;18952;52.516;13.460;2022-10-31T03:55:28;12.00;99.90
32502;DHT22;18952;52.516;13.460;2022-10-31T03:58:03;12.10;99.90
32502;DHT22;18952;52.516;13.460;2022-10-31T04:00:33;12.10;99.90
32502;DHT22;18952;52.516;13.460;2022-10-31T04:03:07;12.10;99.90
32502;DHT22;18952;52.516;13.460;2022-10-31T04:05:37;12.10;99.90
32502;DHT22;18952;52.516;13.460;2022-10-31T04:08:08;12.10;99.90
32502;DHT22;18952;52.516;13.460;2022-10-31T04:10:37;12.20;99.90
32502;DHT22;18952;52.516;13.460;2022-10-31T04:13:08;12.10;99.90
32502;DHT22;18952;52.516;13.460;2022-10-31T04:15:37;12.10;99.90
32502;DHT22;18952;52.516;13.460;2022-10-31T04:18:05;12.10;99.90
32502;DHT22;18952;52.516;13.460;2022-10-31T04:20:36;12.20;99.90
32502;DHT22;18952;52.516;13.460;2022-10-31T04:23:03;12.20;99.90
32502;DHT22;18952;52.516;13.460;2022-10-31T04:25:30;12.20;99.90
32502;DHT22;18952;52.516;13.460;2022-10-31T04:27:57;12.20;99.90
32502;DHT22;18952;52.516;13.460;2022-10-31T04:30:24;12.20;99.90
32502;DHT22;18952;52.516;13.460;2022-10-31T04:32:51;12.20;99.90
32502;DHT22;18952;52.516;13.460;2022-10-31T04:35:18;12.20;99.90
32502;DHT22;18952;52.516;13.460;2022-10-31T04:37:45;12.20;99.90
32502;DHT22;18952;52.516;13.460;2022-10-31T04:40:11;12.20;99.90
32502;DHT22;18952;52.516;13.460;2022-10-31T04:42:38;12.20;99.90
32502;DHT22;18952;52.516;13.460;2022-10-31T04:45:05;12.20;99.90
32502;DHT22;18952;52.516;13.460;2022-10-31T04:47:33;12.20;99.90
32502;DHT22;18952;52.516;13.460;2022-10-31T04:50:00;12.30;99.90
32502;DHT22;18952;52.516;13.460;2022-10-31T04:52:27;12.30;99.90
32502;DHT22;18952;52.516;13.460;2022-10-31T04:54:54;12.30;99.90
32502;DHT22;18952;52.516;13.460;2022-10-31T04:57:21;12.30;99.90
32502;DHT22;18952;52.516;13.460;2022-10-31T04:59:49;12.20;99.90
32502;DHT22;18952;52.516;13.460;2022-10-31T05:02:16;12.20;99.90
32502;DHT22;18952;52.516;13.460;2022-10-31T05:04:43;12.20;99.90
32502;DHT22;18952;52.516;13.460;2022-10-31T05:07:09;12.20;99.90
32502;DHT22;18952;52.516;13.460;2022-10-31T05:09:36;12.20;99.90
32502;DHT22;18952;52.516;13.460;2022-10-31T05:12:03;12.20;99.90
32502;DHT22;18952;52.516;13.460;2022-10-31T05:14:30;12.20;99.90
32502;DHT22;18952;52.516;13.460;2022-10-31T05:16:57;12.30;99.90
32502;DHT22;18952;52.516;13.460;2022-10-31T05:19:23;12.20;99.90
32502;DHT22;18952;52.516;13.460;2022-10-31T05:21:50;12.20;99.90
32502;DHT22;18952;52.516;13.460;2022-10-31T05:24:17;12.20;99.90
32502;DHT22;18952;52.516;13.460;2022-10-31T05:26:43;12.20;99.90
32502;DHT22;18952;52.516;13.460;2022-10-31T05:29:10;12.30;99.90
32502;DHT22;18952;52.516;13.460;2022-10-31T05:31:37;12.20;99.90
32502;DHT22;18952;52.516;13.460;2022-10-31T05:34:04;12.20;99.90
32502;DHT22;18952;52.516;13.460;2022-10-31T05:36:30;12.20;99.90
32502;DHT22;18952;52.516;13.460;2022-10-31T05:38:58;12.20;99.90
32502;DHT22;18952;52.516;13.460;2022-10-31T05:41:24;12.20;99.90
32502;DHT22;18952;52.516;13.460;2022-10-31T05:43:51;12.20;99.90
32502;DHT22;18952;52.516;13.460;2022-10-31T05:46:18;12.20;99.90
32502;DHT22;18952;52.516;13.460;2022-10-31T05:48:45;12.20;99.90
32502;DHT22;18952;52.516;13.460;2022-10-31T05:51:12;12.20;99.90
32502;DHT22;18952;52.516;13.460;2022-10-31T05:53:39;12.20;99.90
32502;DHT22;18952;52.516;13.460;2022-10-31T05:56:06;12.20;99.90
32502;DHT22;18952;52.516;13.460;2022-10-31T05:58:32;12.20;99.90
32502;DHT22;18952;52.516;13.460;2022-10-31T06:00:59;12.20;99.90
32502;DHT22;18952;52.516;13.460;2022-10-31T06:03:26;12.20;99.90
32502;DHT22;18952;52.516;13.460;2022-10-31T06:05:53;12.20;99.90
32502;DHT22;18952;52.516;13.460;2022-10-31T06:08:21;12.20;99.90
32502;DHT22;18952;52.516;13.460;2022-10-31T06:10:47;12.20;99.90
32502;DHT22;18952;52.516;13.460;2022-10-31T06:13:15;12.20;99.90
32502;DHT22;18952;52.516;13.460;2022-10-31T06:15:42;12.20;99.90
32502;DHT22;18952;52.516;13.460;2022-10-31T06:18:09;12.20;99.90
32502;DHT22;18952;52.516;13.460;2022-10-31T06:20:36;12.20;99.90
32502;DHT22;18952;52.516;13.460;2022-10-31T06:23:03;12.10;99.90
32502;DHT22;18952;52.516;13.460;2022-10-31T06:25:31;12.10;99.90
32502;DHT22;18952;52.516;13.460;2022-10-31T06:27:57;12.10;99.90
32502;DHT22;18952;52.516;13.460;2022-10-31T06:30:25;12.20;99.90
32502;DHT22;18952;52.516;13.460;2022-10-31T06:32:52;12.20;99.90
32502;DHT22;18952;52.516;13.460;2022-10-31T06:35:19;12.20;99.90
32502;DHT22;18952;52.516;13.460;2022-10-31T06:37:55;12.20;99.90
32502;DHT22;18952;52.516;13.460;2022-10-31T06:40:22;12.20;99.90
32502;DHT22;18952;52.516;13.460;2022-10-31T06:43:01;12.20;99.90
32502;DHT22;18952;52.516;13.460;2022-10-31T06:45:28;12.30;99.90
32502;DHT22;18952;52.516;13.460;2022-10-31T06:47:56;12.30;99.90
32502;DHT22;18952;52.516;13.460;2022-10-31T06:50:42;12.20;99.90
32502;DHT22;18952;52.516;13.460;2022-10-31T06:53:09;12.20;99.90
32502;DHT22;18952;52.516;13.460;2022-10-31T06:55:35;12.20;99.90
32502;DHT22;18952;52.516;13.460;2022-10-31T06:58:02;12.20;99.90
32502;DHT22;18952;52.516;13.460;2022-10-31T07:00:30;12.30;99.90
32502;DHT22;18952;52.516;13.460;2022-10-31T07:02:59;12.30;99.90
32502;DHT22;18952;52.516;13.460;2022-10-31T07:05:27;12.30;99.90
32502;DHT22;18952;52.516;13.460;2022-10-31T07:07:56;12.40;99.90
32502;DHT22;18952;52.516;13.460;2022-10-31T07:10:24;12.40;99.90
32502;DHT22;18952;52.516;13.460;2022-10-31T07:12:58;12.50;99.90
32502;DHT22;18952;52.516;13.460;2022-10-31T07:15:27;12.60;99.90
32502;DHT22;18952;52.516;13.460;2022-10-31T07:18:00;12.60;99.90
32502;DHT22;18952;52.516;13.460;2022-10-31T07:20:27;12.70;99.90
32502;DHT22;18952;52.516;13.460;2022-10-31T07:22:54;12.80;99.90
32502;DHT22;18952;52.516;13.460;2022-10-31T07:25:22;12.80;99.90
32502;DHT22;18952;52.516;13.460;2022-10-31T07:27:49;12.80;99.90
32502;DHT22;18952;52.516;13.460;2022-10-31T07:30:16;12.80;99.90
32502;DHT22;18952;52.516;13.460;2022-10-31T07:32:45;12.90;99.90
32502;DHT22;18952;52.516;13.460;2022-10-31T07:35:15;12.90;99.90
32502;DHT22;18952;52.516;13.460;2022-10-31T07:37:42;13.00;99.90
32502;DHT22;18952;52.516;13.460;2022-10-31T07:40:09;13.10;99.90
32502;DHT22;18952;52.516;13.460;2022-10-31T07:42:41;13.10;99.90
32502;DHT22;18952;52.516;13.460;2022-10-31T07:45:11;13.20;99.90
32502;DHT22;18952;52.516;13.460;2022-10-31T07:47:39;13.20;99.90
32502;DHT22;18952;52.516;13.460;2022-10-31T07:50:07;13.20;99.90
32502;DHT22;18952;52.516;13.460;2022-10-31T07:52:34;13.20;99.90
32502;DHT22;18952;52.516;13.460;2022-10-31T07:55:02;13.30;99.90
32502;DHT22;18952;52.516;13.460;2022-10-31T07:57:30;13.20;99.90
32502;DHT22;18952;52.516;13.460;2022-10-31T08:00:00;13.20;99.90
32502;DHT22;18952;52.516;13.460;2022-10-31T08:02:27;13.20;99.90
32502;DHT22;18952;52.516;13.460;2022-10-31T08:04:54;13.20;99.90
32502;DHT22;18952;52.516;13.460;2022-10-31T08:07:26;13.20;99.90
32502;DHT22;18952;52.516;13.460;2022-10-31T08:09:54;13.20;99.90
32502;DHT22;18952;52.516;13.460;2022-10-31T08:12:21;13.20;99.90
32502;DHT22;18952;52.516;13.460;2022-10-31T08:14:47;13.30;99.90
32502;DHT22;18952;52.516;13.460;2022-10-31T08:17:17;13.30;99.90
32502;DHT22;18952;52.516;13.460;2022-10-31T08:19:47;13.20;99.90
32502;DHT22;18952;52.516;13.460;2022-10-31T08:22:14;13.20;99.90
32502;DHT22;18952;52.516;13.460;2022-10-31T08:24:40;13.30;99.90
32502;DHT22;18952;52.516;13.460;2022-10-31T08:27:07;13.20;99.90
32502;DHT22;18952;52.516;13.460;2022-10-31T08:29:34;13.30;99.90
32502;DHT22;18952;52.516;13.460;2022-10-31T08:32:01;13.30;99.90
32502;DHT22;18952;52.516;13.460;2022-10-31T08:34:28;13.20;99.90
32502;DHT22;18952;52.516;13.460;2022-10-31T08:36:54;13.20;99.90
32502;DHT22;18952;52.516;13.460;2022-10-31T08:39:21;13.20;99.90
32502;DHT22;18952;52.516;13.460;2022-10-31T08:41:48;13.10;99.90
32502;DHT22;18952;52.516;13.460;2022-10-31T08:44:15;13.10;99.90
32502;DHT22;18952;52.516;13.460;2022-10-31T08:46:41;13.10;99.90
32502;DHT22;18952;52.516;13.460;2022-10-31T08:49:08;13.00;99.90
32502;DHT22;18952;52.516;13.460;2022-10-31T08:51:35;13.00;99.90
32502;DHT22;18952;52.516;13.460;2022-10-31T08:54:02;13.00;99.90
32502;DHT22;18952;52.516;13.460;2022-10-31T08:56:29;13.00;99.90
32502;DHT22;18952;52.516;13.460;2022-10-31T08:58:55;13.10;99.90
32502;DHT22;18952;52.516;13.460;2022-10-31T09:01:22;13.10;99.90
32502;DHT22;18952;52.516;13.460;2022-10-31T09:03:49;13.10;99.90
32502;DHT22;18952;52.516;13.460;2022-10-31T09:06:16;13.20;99.90
32502;DHT22;18952;52.516;13.460;2022-10-31T09:08:43;13.10;99.90
32502;DHT22;18952;52.516;13.460;2022-10-31T09:11:10;13.20;99.90
32502;DHT22;18952;52.516;13.460;2022-10-31T09:13:36;13.20;99.90
32502;DHT22;18952;52.516;13.460;2022-10-31T09:16:07;13.20;99.90
32502;DHT22;18952;52.516;13.460;2022-10-31T09:18:34;13.20;99.90
32502;DHT22;18952;52.516;13.460;2022-10-31T09:21:01;13.20;99.90
32502;DHT22;18952;52.516;13.460;2022-10-31T09:23:28;13.20;99.90
32502;DHT22;18952;52.516;13.460;2022-10-31T09:25:55;13.20;99.90
32502;DHT22;18952;52.516;13.460;2022-10-31T09:28:23;13.20;99.90
32502;DHT22;18952;52.516;13.460;2022-10-31T09:30:52;13.20;99.90
32502;DHT22;18952;52.516;13.460;2022-10-31T09:33:19;13.20;99.90
32502;DHT22;18952;52.516;13.460;2022-10-31T09:35:46;13.30;99.90
32502;DHT22;18952;52.516;13.460;2022-10-31T09:38:16;13.30;99.90
32502;DHT22;18952;52.516;13.460;2022-10-31T09:40:43;13.40;99.90
32502;DHT22;18952;52.516;13.460;2022-10-31T09:43:14;13.40;99.90
32502;DHT22;18952;52.516;13.460;2022-10-31T09:49:02;13.50;99.90
32502;DHT22;18952;52.516;13.460;2022-10-31T09:51:36;13.50;99.90
32502;DHT22;18952;52.516;13.460;2022-10-31T09:54:17;13.50;99.90
32502;DHT22;18952;52.516;13.460;2022-10-31T09:56:45;13.60;99.90
32502;DHT22;18952;52.516;13.460;2022-10-31T09:59:26;13.60;99.90
32502;DHT22;18952;52.516;13.460;2022-10-31T10:05:00;13.70;99.90
32502;DHT22;18952;52.516;13.460;2022-10-31T10:10:25;13.70;99.90
32502;DHT22;18952;52.516;13.460;2022-10-31T10:18:23;13.80;99.90
32502;DHT22;18952;52.516;13.460;2022-10-31T10:26:18;13.90;99.90
32502;DHT22;18952;52.516;13.460;2022-10-31T10:28:56;14.00;99.90
32502;DHT22;18952;52.516;13.460;2022-10-31T10:31:31;14.10;99.90
32502;DHT22;18952;52.516;13.460;2022-10-31T10:37:00;14.20;99.90
32502;DHT22;18952;52.516;13.460;2022-10-31T10:39:38;14.20;99.90
32502;DHT22;18952;52.516;13.460;2022-10-31T10:42:14;14.30;99.90
32502;DHT22;18952;52.516;13.460;2022-10-31T10:44:46;14.30;99.90
32502;DHT22;18952;52.516;13.460;2022-10-31T10:47:13;14.40;99.90
32502;DHT22;18952;52.516;13.460;2022-10-31T10:49:51;14.50;99.90
32502;DHT22;18952;52.516;13.460;2022-10-31T10:55:21;14.50;99.90
32502;DHT22;18952;52.516;13.460;2022-10-31T10:58:03;14.60;99.90
32502;DHT22;18952;52.516;13.460;2022-10-31T11:00:39;14.70;99.90
32502;DHT22;18952;52.516;13.460;2022-10-31T11:03:09;14.70;99.90
32502;DHT22;18952;52.516;13.460;2022-10-31T11:05:56;14.70;99.90
32502;DHT22;18952;52.516;13.460;2022-10-31T11:13:36;14.90;99.90
32502;DHT22;18952;52.516;13.460;2022-10-31T11:16:09;15.00;99.90
32502;DHT22;18952;52.516;13.460;2022-10-31T11:18:40;15.00;99.90
32502;DHT22;18952;52.516;13.460;2022-10-31T11:21:27;15.10;99.90
32502;DHT22;18952;52.516;13.460;2022-10-31T11:26:41;15.10;99.90
32502;DHT22;18952;52.516;13.460;2022-10-31T11:29:21;15.20;99.90
32502;DHT22;18952;52.516;13.460;2022-10-31T11:31:51;15.20;99.90
32502;DHT22;18952;52.516;13.460;2022-10-31T11:34:29;15.30;99.90
32502;DHT22;18952;52.516;13.460;2022-10-31T11:37:11;15.40;99.90
32502;DHT22;18952;52.516;13.460;2022-10-31T11:40:26;15.40;99.90
32502;DHT22;18952;52.516;13.460;2022-10-31T11:42:40;15.40;99.90
32502;DHT22;18952;52.516;13.460;2022-10-31T11:45:29;15.50;99.90
32502;DHT22;18952;52.516;13.460;2022-10-31T11:47:57;15.60;99.90
32502;DHT22;18952;52.516;13.460;2022-10-31T11:50:39;15.70;99.90
32502;DHT22;18952;52.516;13.460;2022-10-31T11:53:16;15.80;99.90
32502;DHT22;18952;52.516;13.460;2022-10-31T11:55:44;15.90;99.90
32502;DHT22;18952;52.516;13.460;2022-10-31T11:58:25;15.90;99.90
32502;DHT22;18952;52.516;13.460;2022-10-31T12:00:54;16.10;99.90
32502;DHT22;18952;52.516;13.460;2022-10-31T12:08:37;16.20;99.90
32502;DHT22;18952;52.516;13.460;2022-10-31T12:14:26;16.40;99.90
32502;DHT22;18952;52.516;13.460;2022-10-31T12:17:03;16.50;99.90
32502;DHT22;18952;52.516;13.460;2022-10-31T12:22:24;16.70;99.90
32502;DHT22;18952;52.516;13.460;2022-10-31T12:25:11;16.80;99.90
32502;DHT22;18952;52.516;13.460;2022-10-31T12:51:36;17.70;99.90
32502;DHT22;18952;52.516;13.460;2022-10-31T13:00:26;17.90;99.90
32502;DHT22;18952;52.516;13.460;2022-10-31T13:06:03;18.10;99.90
32502;DHT22;18952;52.516;13.460;2022-10-31T13:08:41;18.20;99.90
32502;DHT22;18952;52.516;13.460;2022-10-31T13:16:47;18.40;99.90
32502;DHT22;18952;52.516;13.460;2022-10-31T13:22:17;18.50;99.90
32502;DHT22;18952;52.516;13.460;2022-10-31T13:27:56;18.60;99.90
32502;DHT22;18952;52.516;13.460;2022-10-31T13:30:27;18.60;99.90
32502;DHT22;18952;52.516;13.460;2022-10-31T13:35:48;18.70;99.90
32502;DHT22;18952;52.516;13.460;2022-10-31T13:38:24;18.70;99.90
32502;DHT22;18952;52.516;13.460;2022-10-31T13:41:28;18.70;99.90
32502;DHT22;18952;52.516;13.460;2022-10-31T13:44:23;18.70;99.90
32502;DHT22;18952;52.516;13.460;2022-10-31T13:46:52;18.80;99.90
32502;DHT22;18952;52.516;13.460;2022-10-31T13:59:54;18.50;99.90
32502;DHT22;18952;52.516;13.460;2022-10-31T14:02:31;18.40;99.90
32502;DHT22;18952;52.516;13.460;2022-10-31T14:05:00;18.40;99.90
32502;DHT22;18952;52.516;13.460;2022-10-31T14:07:28;18.30;99.90
32502;DHT22;18952;52.516;13.460;2022-10-31T14:10:16;18.20;99.90
32502;DHT22;18952;52.516;13.460;2022-10-31T14:12:47;18.10;99.90
32502;DHT22;18952;52.516;13.460;2022-10-31T14:17:55;18.10;99.90
32502;DHT22;18952;52.516;13.460;2022-10-31T14:25:53;17.90;99.90
32502;DHT22;18952;52.516;13.460;2022-10-31T14:28:32;17.80;99.90
32502;DHT22;18952;52.516;13.460;2022-10-31T14:31:00;17.80;99.90
32502;DHT22;18952;52.516;13.460;2022-10-31T14:33:29;17.60;99.90
32502;DHT22;18952;52.516;13.460;2022-10-31T14:36:20;17.60;99.90
32502;DHT22;18952;52.516;13.460;2022-10-31T14:39:02;17.50;99.90
32502;DHT22;18952;52.516;13.460;2022-10-31T14:42:00;17.50;99.90
32502;DHT22;18952;52.516;13.460;2022-10-31T14:47:31;17.40;99.90
32502;DHT22;18952;52.516;13.460;2022-10-31T14:51:01;17.30;99.90
32502;DHT22;18952;52.516;13.460;2022-10-31T14:53:18;17.20;99.90
32502;DHT22;18952;52.516;13.460;2022-10-31T14:55:52;17.00;99.90
32502;DHT22;18952;52.516;13.460;2022-10-31T15:00:56;16.70;99.90
32502;DHT22;18952;52.516;13.460;2022-10-31T15:05:56;16.50;99.90
32502;DHT22;18952;52.516;13.460;2022-10-31T15:11:20;16.30;99.90
32502;DHT22;18952;52.516;13.460;2022-10-31T15:13:55;16.10;99.90
32502;DHT22;18952;52.516;13.460;2022-10-31T15:16:36;16.10;99.90
32502;DHT22;18952;52.516;13.460;2022-10-31T15:19:12;16.00;99.90
32502;DHT22;18952;52.516;13.460;2022-10-31T15:21:43;15.80;99.90
32502;DHT22;18952;52.516;13.460;2022-10-31T15:24:12;15.70;99.90
32502;DHT22;18952;52.516;13.460;2022-10-31T15:26:40;15.70;99.90
32502;DHT22;18952;52.516;13.460;2022-10-31T15:29:15;15.60;99.90
32502;DHT22;18952;52.516;13.460;2022-10-31T15:31:57;15.50;99.90
32502;DHT22;18952;52.516;13.460;2022-10-31T15:34:40;15.50;99.90
32502;DHT22;18952;52.516;13.460;2022-10-31T15:37:19;15.40;99.90
32502;DHT22;18952;52.516;13.460;2022-10-31T15:39:47;15.30;99.90
32502;DHT22;18952;52.516;13.460;2022-10-31T15:42:22;15.30;99.90
32502;DHT22;18952;52.516;13.460;2022-10-31T15:45:04;15.30;99.90
32502;DHT22;18952;52.516;13.460;2022-10-31T15:47:33;15.20;99.90
32502;DHT22;18952;52.516;13.460;2022-10-31T15:50:01;15.20;99.90
32502;DHT22;18952;52.516;13.460;2022-10-31T15:57:43;14.90;99.90
32502;DHT22;18952;52.516;13.460;2022-10-31T16:00:29;14.90;99.90
32502;DHT22;18952;52.516;13.460;2022-10-31T16:05:50;14.80;99.90
32502;DHT22;18952;52.516;13.460;2022-10-31T16:08:36;14.80;99.90
32502;DHT22;18952;52.516;13.460;2022-10-31T16:13:35;14.70;99.90
32502;DHT22;18952;52.516;13.460;2022-10-31T16:16:14;14.70;99.90
32502;DHT22;18952;52.516;13.460;2022-10-31T16:19:04;14.70;99.90
32502;DHT22;18952;52.516;13.460;2022-10-31T16:21:34;14.60;99.90
32502;DHT22;18952;52.516;13.460;2022-10-31T16:24:04;14.50;99.90
32502;DHT22;18952;52.516;13.460;2022-10-31T16:26:38;14.50;99.90
32502;DHT22;18952;52.516;13.460;2022-10-31T16:29:25;14.40;99.90
32502;DHT22;18952;52.516;13.460;2022-10-31T16:31:53;14.30;99.90
32502;DHT22;18952;52.516;13.460;2022-10-31T16:34:21;14.30;99.90
32502;DHT22;18952;52.516;13.460;2022-10-31T16:36:52;14.20;99.90
32502;DHT22;18952;52.516;13.460;2022-10-31T16:39:20;14.20;99.90
32502;DHT22;18952;52.516;13.460;2022-10-31T16:41:50;14.30;99.90
32502;DHT22;18952;52.516;13.460;2022-10-31T16:44:27;14.20;99.90
32502;DHT22;18952;52.516;13.460;2022-10-31T16:49:32;14.20;99.90
32502;DHT22;18952;52.516;13.460;2022-10-31T16:51:59;14.20;99.90
32502;DHT22;18952;52.516;13.460;2022-10-31T16:54:26;14.20;99.90
32502;DHT22;18952;52.516;13.460;2022-10-31T16:56:54;14.10;99.90
32502;DHT22;18952;52.516;13.460;2022-10-31T16:59:21;14.10;99.90
32502;DHT22;18952;52.516;13.460;2022-10-31T17:01:49;14.00;99.90
32502;DHT22;18952;52.516;13.460;2022-10-31T17:04:16;14.00;99.90
32502;DHT22;18952;52.516;13.460;2022-10-31T17:06:43;14.00;99.90
32502;DHT22;18952;52.516;13.460;2022-10-31T17:09:09;13.90;99.90
32502;DHT22;18952;52.516;13.460;2022-10-31T17:11:41;13.90;99.90
32502;DHT22;18952;52.516;13.460;2022-10-31T17:14:16;13.90;99.90
32502;DHT22;18952;52.516;13.460;2022-10-31T17:16:43;13.80;99.90
32502;DHT22;18952;52.516;13.460;2022-10-31T17:19:10;13.70;99.90
32502;DHT22;18952;52.516;13.460;2022-10-31T17:21:38;13.60;99.90
32502;DHT22;18952;52.516;13.460;2022-10-31T17:24:06;13.60;99.90
32502;DHT22;18952;52.516;13.460;2022-10-31T17:26:33;13.60;99.90
32502;DHT22;18952;52.516;13.460;2022-10-31T17:28:59;13.50;99.90
32502;DHT22;18952;52.516;13.460;2022-10-31T17:31:28;13.30;99.90
32502;DHT22;18952;52.516;13.460;2022-10-31T17:33:56;13.20;99.90
32502;DHT22;18952;52.516;13.460;2022-10-31T17:36:29;13.10;99.90
32502;DHT22;18952;52.516;13.460;2022-10-31T17:38:56;13.10;99.90
32502;DHT22;18952;52.516;13.460;2022-10-31T17:41:23;13.10;99.90
32502;DHT22;18952;52.516;13.460;2022-10-31T17:43:57;13.00;99.90
32502;DHT22;18952;52.516;13.460;2022-10-31T17:46:24;12.90;99.90
32502;DHT22;18952;52.516;13.460;2022-10-31T17:48:51;12.80;99.90
32502;DHT22;18952;52.516;13.460;2022-10-31T17:51:18;12.70;99.90
32502;DHT22;18952;52.516;13.460;2022-10-31T17:53:45;12.60;99.90
32502;DHT22;18952;52.516;13.460;2022-10-31T17:56:12;12.60;99.90
32502;DHT22;18952;52.516;13.460;2022-10-31T17:58:39;12.60;99.90
32502;DHT22;18952;52.516;13.460;2022-10-31T18:01:08;12.60;99.90
32502;DHT22;18952;52.516;13.460;2022-10-31T18:03:36;12.60;99.90
32502;DHT22;18952;52.516;13.460;2022-10-31T18:06:03;12.60;99.90
32502;DHT22;18952;52.516;13.460;2022-10-31T18:08:32;12.60;99.90
32502;DHT22;18952;52.516;13.460;2022-10-31T18:11:01;12.60;99.90
32502;DHT22;18952;52.516;13.460;2022-10-31T18:13:30;12.70;99.90
32502;DHT22;18952;52.516;13.460;2022-10-31T18:15:57;12.80;99.90
32502;DHT22;18952;52.516;13.460;2022-10-31T18:18:24;12.80;99.90
32502;DHT22;18952;52.516;13.460;2022-10-31T18:20:51;12.80;99.90
32502;DHT22;18952;52.516;13.460;2022-10-31T18:23:18;12.80;99.90